Time;durP1;ratioP1;P1;durP2;ratioP2;P2;SDS_P1;SDS_P2;PMS_P1;PMS_P2;Temp;Humidity;BMP_temperature;BMP_pressure;BME280_temperature;BME280_humidity;BME280_pressure;Samples;Min_cycle;Max_cycle;Signal;HPM_P1;HPM_P2
2023/02/06 00:01:58;;;;;;;29.53;19.57;;;;;;;7.10;60.49;99453.16;4993870;28;20242;-70
2023/02/06 00:04:24;;;;;;;27.47;18.00;;;;;;;7.04;61.09;99448.25;5018647;28;20193;-70
2023/02/06 00:06:49;;;;;;;28.47;20.30;;;;;;;7.06;60.14;99447.25;5013924;28;20196;-70
2023/02/06 00:09:15;;;;;;;26.40;19.47;;;;;;;7.06;60.83;99454.22;5010936;28;20684;-70
2023/02/06 00:11:40;;;;;;;30.47;19.70;;;;;;;6.96;60.55;99460.81;5007686;28;20656;-69
2023/02/06 00:14:06;;;;;;;29.13;20.00;;;;;;;6.99;60.50;99455.44;5009572;28;20184;-70
2023/02/06 00:16:32;;;;;;;30.37;19.90;;;;;;;6.96;60.89;99456.47;5010855;28;20287;-69
2023/02/06 00:18:58;;;;;;;28.07;18.83;;;;;;;6.94;61.15;99458.28;5011113;28;20205;-70
2023/02/06 00:21:26;;;;;;;26.17;18.60;;;;;;;6.99;60.61;99463.28;5014670;28;20493;-71
2023/02/06 00:23:57;;;;;;;29.50;20.00;;;;;;;7.00;60.95;99467.56;4993750;28;20443;-70
2023/02/06 00:26:23;;;;;;;31.73;21.10;;;;;;;7.01;61.02;99464.88;5009288;28;20432;-71
2023/02/06 00:28:49;;;;;;;33.10;21.23;;;;;;;7.04;60.54;99462.13;5010854;28;20455;-69
2023/02/06 00:31:15;;;;;;;32.13;20.33;;;;;;;7.10;60.62;99455.78;5010065;28;20494;-71
2023/02/06 00:33:40;;;;;;;35.70;22.40;;;;;;;7.08;60.63;99455.00;5013141;28;20184;-69
2023/02/06 00:36:07;;;;;;;36.97;22.23;;;;;;;7.08;60.74;99449.78;5010469;28;20209;-70
2023/02/06 00:38:32;;;;;;;37.53;22.07;;;;;;;7.01;60.65;99444.03;5010913;28;20254;-68
2023/02/06 00:40:58;;;;;;;35.17;22.33;;;;;;;7.07;60.83;99453.31;4989101;28;20427;-70
2023/02/06 00:43:23;;;;;;;34.80;22.90;;;;;;;7.11;60.47;99451.41;4994596;28;20706;-72
2023/02/06 00:45:53;;;;;;;32.07;21.43;;;;;;;7.14;60.78;99444.28;5010590;28;20267;-70
2023/02/06 00:48:18;;;;;;;36.10;22.40;;;;;;;7.14;60.61;99436.47;5010359;28;20209;-73
2023/02/06 00:50:44;;;;;;;36.37;22.90;;;;;;;7.14;60.29;99438.19;5008816;28;20424;-71
2023/02/06 00:53:09;;;;;;;36.67;22.17;;;;;;;7.10;60.79;99447.94;5004853;28;20188;-71
2023/02/06 00:55:35;;;;;;;36.17;22.33;;;;;;;7.11;60.73;99441.81;5010524;28;20635;-69
2023/02/06 00:58:00;;;;;;;37.60;21.93;;;;;;;7.04;60.68;99443.88;5010099;28;20605;-70
2023/02/06 01:00:25;;;;;;;41.90;22.17;;;;;;;7.05;60.88;99442.97;5009426;28;20185;-70
2023/02/06 01:02:51;;;;;;;35.77;21.63;;;;;;;6.99;60.72;99448.50;4954458;28;20226;-69
2023/02/06 01:05:17;;;;;;;33.63;22.20;;;;;;;6.84;61.11;99452.66;5007649;28;20176;-71
2023/02/06 01:07:42;;;;;;;40.77;23.47;;;;;;;6.93;61.23;99446.16;5010327;28;20216;-70
2023/02/06 01:10:08;;;;;;;39.90;23.33;;;;;;;6.98;61.48;99441.59;5009888;28;20188;-69
2023/02/06 01:12:35;;;;;;;38.03;22.30;;;;;;;7.06;61.19;99446.41;5016201;28;20271;-71
2023/02/06 01:15:01;;;;;;;39.30;23.83;;;;;;;7.11;60.82;99449.63;5008945;28;20471;-69
2023/02/06 01:17:27;;;;;;;39.47;24.10;;;;;;;7.10;61.18;99447.13;5009799;28;20943;-71
2023/02/06 01:19:52;;;;;;;40.37;24.87;;;;;;;7.01;61.02;99446.63;5010361;28;20188;-69
2023/02/06 01:22:17;;;;;;;36.80;22.23;;;;;;;7.06;60.90;99459.44;5009922;28;21051;-71
2023/02/06 01:24:43;;;;;;;37.57;22.17;;;;;;;6.98;60.73;99459.84;5010412;28;20770;-69
2023/02/06 01:27:08;;;;;;;43.03;24.67;;;;;;;6.89;60.65;99453.31;5009659;28;20722;-70
2023/02/06 01:29:34;;;;;;;35.60;23.37;;;;;;;6.86;61.73;99456.03;5009680;28;20243;-71
2023/02/06 01:31:59;;;;;;;40.83;24.23;;;;;;;6.87;61.83;99451.66;5010202;28;20185;-71
2023/02/06 01:34:25;;;;;;;38.10;24.63;;;;;;;6.96;61.63;99451.25;5011813;28;20230;-70
2023/02/06 01:36:51;;;;;;;37.10;23.40;;;;;;;6.89;61.46;99450.69;5009319;28;20249;-70
2023/02/06 01:39:17;;;;;;;40.53;24.33;;;;;;;6.96;61.45;99455.59;5002696;28;20447;-71
2023/02/06 01:41:42;;;;;;;40.70;23.70;;;;;;;7.00;61.74;99459.75;5007156;28;20189;-72
2023/02/06 01:44:09;;;;;;;40.80;24.47;;;;;;;7.00;61.17;99451.94;5006031;28;20683;-71
2023/02/06 01:46:35;;;;;;;44.73;24.80;;;;;;;7.07;61.75;99445.47;5004195;28;20189;-70
2023/02/06 01:49:01;;;;;;;38.70;23.93;;;;;;;7.08;61.12;99449.78;5009877;28;20831;-72
2023/02/06 01:51:27;;;;;;;42.27;25.10;;;;;;;7.12;61.27;99443.50;5009349;28;20431;-71
2023/02/06 01:54:00;;;;;;;41.03;23.37;;;;;;;7.14;61.08;99436.47;5005305;28;20188;-70
2023/02/06 01:56:27;;;;;;;41.73;24.63;;;;;;;7.05;60.88;99434.31;4990643;28;20481;-70
2023/02/06 01:58:56;;;;;;;42.50;25.50;;;;;;;7.12;60.95;99432.25;4991886;28;20447;-72
2023/02/06 02:01:21;;;;;;;42.97;25.50;;;;;;;7.11;60.84;99439.22;5010010;28;20442;-72
2023/02/06 02:03:50;;;;;;;40.40;23.57;;;;;;;7.12;61.24;99438.28;5003224;28;21099;-72
2023/02/06 02:06:18;;;;;;;45.60;25.73;;;;;;;7.08;60.84;99444.56;4991428;28;20576;-75
2023/02/06 02:08:49;;;;;;;46.83;26.10;;;;;;;7.16;61.24;99447.66;4991726;28;21243;-71
2023/02/06 02:11:18;;;;;;;47.90;25.97;;;;;;;7.20;61.15;99453.56;4997045;28;20431;-72
2023/02/06 02:13:43;;;;;;;51.23;28.20;;;;;;;7.08;61.03;99447.16;4992665;28;20459;-70
2023/02/06 02:18:45;;;;;;;51.93;27.20;;;;;;;7.15;61.09;99445.09;5012475;28;20220;-71
2023/02/06 02:21:39;;;;;;;46.43;25.93;;;;;;;7.20;61.14;99443.97;4992856;28;20438;-72
2023/02/06 02:24:12;;;;;;;51.57;27.47;;;;;;;7.20;60.90;99449.19;5010199;28;20803;-70
2023/02/06 02:26:55;;;;;;;49.93;27.00;;;;;;;7.21;61.34;99440.44;5009233;28;20460;-71
2023/02/06 02:29:39;;;;;;;49.70;27.90;;;;;;;7.17;60.69;99440.66;4978406;28;20458;-70
2023/02/06 02:33:00;;;;;;;51.57;27.03;;;;;;;7.21;61.15;99448.25;5012929;28;20419;-70
2023/02/06 02:35:46;;;;;;;52.27;26.03;;;;;;;7.26;60.78;99439.38;4994881;28;20478;-69
2023/02/06 02:38:36;;;;;;;51.43;27.57;;;;;;;7.15;61.24;99442.50;5010018;28;20534;-73
2023/02/06 02:41:09;;;;;;;54.37;27.10;;;;;;;7.13;61.34;99436.50;4995016;28;20470;-68
2023/02/06 02:43:42;;;;;;;52.30;27.70;;;;;;;7.01;61.53;99437.97;5000121;28;20526;-71
2023/02/06 02:46:21;;;;;;;52.80;27.40;;;;;;;7.04;61.30;99437.84;5001741;28;20450;-70
2023/02/06 02:48:50;;;;;;;52.50;27.30;;;;;;;7.00;61.21;99436.28;5012525;28;20806;-69
2023/02/06 02:51:15;;;;;;;52.93;28.27;;;;;;;7.06;61.24;99429.00;4988603;28;20523;-69
2023/02/06 02:53:41;;;;;;;49.40;27.10;;;;;;;7.08;61.14;99434.13;4979533;28;20989;-71
2023/02/06 02:56:21;;;;;;;54.50;29.30;;;;;;;7.07;60.95;99429.84;5012499;28;20469;-69
2023/02/06 02:58:51;;;;;;;53.13;28.50;;;;;;;7.14;61.02;99430.38;5006783;28;20208;-71
2023/02/06 03:01:21;;;;;;;49.70;27.57;;;;;;;7.18;60.65;99424.94;4994045;28;20431;-70
2023/02/06 03:03:48;;;;;;;51.50;27.03;;;;;;;7.13;60.70;99421.72;4978021;28;20428;-69
2023/02/06 03:06:39;;;;;;;52.20;29.10;;;;;;;7.13;60.72;99434.75;4993796;28;20906;-70
2023/02/06 03:09:13;;;;;;;49.83;27.93;;;;;;;7.06;60.62;99425.53;4995306;28;20542;-69
2023/02/06 03:11:43;;;;;;;53.27;26.93;;;;;;;7.11;61.02;99425.34;4998567;28;20428;-70
2023/02/06 03:14:24;;;;;;;48.97;26.90;;;;;;;7.07;60.82;99430.69;4995069;28;20487;-70
2023/02/06 03:16:54;;;;;;;57.03;29.00;;;;;;;7.05;60.64;99431.69;5014305;28;20625;-70
2023/02/06 03:19:24;;;;;;;58.53;28.27;;;;;;;7.06;60.51;99420.31;4994496;28;20501;-69
2023/02/06 03:21:50;;;;;;;51.60;25.90;;;;;;;6.98;60.84;99425.94;4994953;28;20852;-70
2023/02/06 03:24:19;;;;;;;50.83;26.90;;;;;;;7.03;60.66;99425.72;5012180;28;20447;-70
2023/02/06 03:26:47;;;;;;;46.10;26.03;;;;;;;7.06;60.78;99430.75;4987577;28;20891;-70
2023/02/06 03:29:14;;;;;;;52.23;27.83;;;;;;;6.96;60.69;99432.13;4993950;28;20554;-70
2023/02/06 03:31:54;;;;;;;49.00;28.07;;;;;;;6.94;61.12;99413.09;4993252;28;20902;-70
2023/02/06 03:34:32;;;;;;;57.47;26.93;;;;;;;7.01;60.95;99417.13;4999584;28;20431;-70
2023/02/06 03:36:57;;;;;;;52.63;27.30;;;;;;;6.97;60.85;99426.00;4989669;28;20550;-71
2023/02/06 03:39:23;;;;;;;55.03;29.00;;;;;;;6.98;60.90;99420.72;5011992;28;20995;-69
2023/02/06 03:41:48;;;;;;;53.87;27.73;;;;;;;6.87;61.16;99415.16;5013254;28;20180;-68
2023/02/06 03:44:18;;;;;;;47.60;26.43;;;;;;;6.96;61.23;99413.88;4994374;28;20199;-69
2023/02/06 03:46:45;;;;;;;55.33;28.70;;;;;;;7.01;60.57;99412.72;4986814;28;20189;-69
2023/02/06 03:49:14;;;;;;;50.17;27.80;;;;;;;7.03;60.26;99417.88;4977675;28;20451;-70
2023/02/06 03:51:42;;;;;;;51.00;28.50;;;;;;;7.02;60.76;99413.59;4994609;28;20443;-70
2023/02/06 03:54:08;;;;;;;46.00;26.83;;;;;;;7.04;60.67;99419.56;5019693;28;20953;-68
2023/02/06 03:56:37;;;;;;;45.27;25.90;;;;;;;6.97;60.88;99426.00;4983903;28;20467;-69
2023/02/06 03:59:02;;;;;;;48.47;26.73;;;;;;;7.04;60.72;99436.06;4995117;28;20462;-69
2023/02/06 04:01:28;;;;;;;49.67;26.33;;;;;;;7.07;60.92;99435.03;4981135;28;20443;-69
2023/02/06 04:03:53;;;;;;;55.40;29.20;;;;;;;6.97;60.55;99436.41;5011927;28;20188;-70
2023/02/06 04:06:19;;;;;;;51.80;27.93;;;;;;;6.92;61.02;99434.03;4994070;28;20172;-69
2023/02/06 04:08:44;;;;;;;61.73;29.00;;;;;;;6.96;60.43;99429.50;5007736;28;20539;-70
2023/02/06 04:11:10;;;;;;;49.13;26.40;;;;;;;7.01;60.54;99430.16;5016462;28;20606;-70
2023/02/06 04:13:35;;;;;;;49.87;27.63;;;;;;;6.99;60.89;99431.97;5008263;28;20623;-69
2023/02/06 04:16:01;;;;;;;55.50;26.90;;;;;;;7.05;61.13;99440.34;5013903;28;20197;-69
2023/02/06 04:18:27;;;;;;;54.60;27.70;;;;;;;7.01;60.76;99443.19;5009835;28;20224;-69
2023/02/06 04:20:52;;;;;;;48.93;27.40;;;;;;;7.07;60.45;99437.66;5011264;28;20188;-69
2023/02/06 04:23:18;;;;;;;50.40;25.93;;;;;;;7.05;60.49;99442.13;5006107;28;20275;-69
2023/02/06 04:25:44;;;;;;;48.50;27.17;;;;;;;6.99;60.09;99439.81;5011078;28;20179;-70
2023/02/06 04:28:09;;;;;;;53.40;27.67;;;;;;;6.99;60.43;99443.28;5010864;28;20451;-70
2023/02/06 04:30:35;;;;;;;50.90;28.60;;;;;;;6.98;60.28;99430.28;5010688;28;20180;-70
2023/02/06 04:33:00;;;;;;;45.60;26.27;;;;;;;6.91;60.20;99427.13;5016374;28;20183;-71
2023/02/06 04:35:26;;;;;;;49.53;27.97;;;;;;;6.85;59.90;99433.50;5011231;28;21893;-71
2023/02/06 04:37:51;;;;;;;45.10;27.07;;;;;;;6.85;60.91;99433.50;5010469;28;20216;-70
2023/02/06 04:40:17;;;;;;;47.30;27.80;;;;;;;6.84;60.54;99429.19;5008446;28;20275;-69
2023/02/06 04:42:42;;;;;;;47.37;27.20;;;;;;;6.83;60.69;99440.53;4997370;28;20190;-68
2023/02/06 04:45:08;;;;;;;46.57;27.50;;;;;;;6.86;60.84;99434.34;5002332;28;20173;-68
2023/02/06 04:47:33;;;;;;;43.97;27.07;;;;;;;6.86;60.29;99421.31;4998424;28;20196;-68
2023/02/06 04:49:59;;;;;;;54.90;28.20;;;;;;;6.85;60.89;99417.84;4999043;28;20196;-70
2023/02/06 04:52:24;;;;;;;47.70;28.67;;;;;;;6.86;60.97;99431.75;5010523;28;20227;-70
2023/02/06 04:55:01;;;;;;;49.33;27.30;;;;;;;6.89;60.74;99432.44;5006299;28;20196;-70
2023/02/06 04:57:26;;;;;;;47.20;28.80;;;;;;;6.84;60.77;99431.81;4976570;28;20188;-71
2023/02/06 04:59:52;;;;;;;44.87;27.20;;;;;;;6.89;60.94;99429.84;5011335;28;20466;-72
2023/02/06 05:02:17;;;;;;;45.40;26.40;;;;;;;6.81;60.42;99425.91;5011313;28;20213;-71
2023/02/06 05:04:42;;;;;;;47.00;28.03;;;;;;;6.80;60.85;99430.28;4994266;28;20644;-71
2023/02/06 05:07:08;;;;;;;46.80;27.60;;;;;;;6.79;60.35;99430.34;5009977;28;20185;-70
2023/02/06 05:09:33;;;;;;;51.03;28.80;;;;;;;6.76;60.69;99433.94;5017836;28;20211;-71
2023/02/06 05:11:59;;;;;;;43.50;27.03;;;;;;;6.76;60.70;99437.38;5013796;28;20319;-70
2023/02/06 05:14:24;;;;;;;43.33;25.77;;;;;;;6.82;60.64;99441.47;5008860;28;20181;-70
2023/02/06 05:16:50;;;;;;;44.57;27.70;;;;;;;6.81;60.39;99431.94;5009461;28;20210;-69
2023/02/06 05:19:15;;;;;;;43.00;27.03;;;;;;;6.80;60.28;99438.09;5011300;28;20208;-69
2023/02/06 05:21:41;;;;;;;42.27;27.37;;;;;;;6.80;60.19;99439.84;5009991;28;20211;-71
2023/02/06 05:24:06;;;;;;;35.43;23.90;;;;;;;6.77;60.45;99446.06;4992468;28;20190;-69
2023/02/06 05:26:32;;;;;;;54.57;27.17;;;;;;;6.74;59.87;99446.19;5007684;28;20181;-69
2023/02/06 05:28:57;;;;;;;43.33;26.43;;;;;;;6.72;59.41;99448.03;5010013;28;20243;-69
2023/02/06 05:31:22;;;;;;;40.20;26.63;;;;;;;6.64;59.71;99434.53;5009322;28;20239;-69
2023/02/06 05:33:50;;;;;;;42.80;26.40;;;;;;;6.56;59.91;99443.53;5015205;28;20658;-70
2023/02/06 05:36:16;;;;;;;41.37;26.30;;;;;;;6.53;60.20;99441.09;5010129;28;20230;-70
2023/02/06 05:38:42;;;;;;;39.20;25.07;;;;;;;6.53;60.03;99443.72;5009362;28;20475;-70
2023/02/06 05:41:07;;;;;;;37.70;26.10;;;;;;;6.51;59.86;99434.25;5010401;28;20435;-69
2023/02/06 05:43:32;;;;;;;34.47;24.43;;;;;;;6.53;59.73;99443.72;4985493;28;20233;-69
2023/02/06 05:45:58;;;;;;;41.70;26.23;;;;;;;6.55;59.66;99441.84;5003407;28;20587;-69
2023/02/06 05:48:23;;;;;;;42.60;26.20;;;;;;;6.54;59.59;99440.19;4994097;28;20600;-70
2023/02/06 05:50:49;;;;;;;38.97;25.37;;;;;;;6.56;59.93;99440.09;5009569;28;20623;-69
2023/02/06 05:53:16;;;;;;;37.10;24.60;;;;;;;6.50;59.54;99438.63;4992079;28;20246;-70
2023/02/06 05:55:41;;;;;;;39.00;25.27;;;;;;;6.58;60.65;99449.53;5009797;28;20577;-70
2023/02/06 05:58:06;;;;;;;39.30;26.40;;;;;;;6.62;60.04;99450.22;5009068;28;20462;-69
2023/02/06 06:00:32;;;;;;;40.03;25.77;;;;;;;6.63;60.10;99444.09;5008213;28;20204;-69
2023/02/06 06:02:57;;;;;;;38.03;25.13;;;;;;;6.66;59.76;99448.34;5010961;28;20200;-69
2023/02/06 06:05:23;;;;;;;39.40;25.30;;;;;;;6.68;59.44;99438.69;5011275;28;20259;-69
2023/02/06 06:07:48;;;;;;;40.03;24.87;;;;;;;6.66;59.32;99437.91;5010698;28;20184;-69
2023/02/06 06:10:14;;;;;;;34.37;24.50;;;;;;;6.75;59.76;99438.31;5009171;28;20234;-70
2023/02/06 06:12:39;;;;;;;34.13;24.47;;;;;;;6.75;59.42;99434.88;5012713;28;20272;-70
2023/02/06 06:15:05;;;;;;;35.73;23.67;;;;;;;6.79;59.30;99440.78;4992296;28;20184;-70
2023/02/06 06:17:31;;;;;;;34.93;25.20;;;;;;;6.82;58.92;99441.47;5012902;28;20200;-67
2023/02/06 06:19:56;;;;;;;34.50;23.63;;;;;;;6.88;58.72;99446.41;5009305;28;20860;-70
2023/02/06 06:22:22;;;;;;;38.70;24.07;;;;;;;6.87;58.39;99457.75;5009244;28;20222;-71
2023/02/06 06:24:47;;;;;;;35.27;24.30;;;;;;;6.88;58.60;99454.22;5009464;28;20199;-71
2023/02/06 06:27:13;;;;;;;39.23;25.07;;;;;;;6.89;58.31;99448.09;5011244;28;20222;-71
2023/02/06 06:29:38;;;;;;;35.33;24.30;;;;;;;6.83;58.73;99447.53;5010092;28;20204;-69
2023/02/06 06:32:04;;;;;;;33.63;23.50;;;;;;;6.85;58.43;99453.53;5015075;28;20271;-71
2023/02/06 06:34:29;;;;;;;36.60;24.03;;;;;;;6.89;58.28;99453.31;5010859;28;20191;-69
2023/02/06 06:36:55;;;;;;;33.80;23.80;;;;;;;6.78;58.10;99463.41;5013425;28;20280;-70
2023/02/06 06:39:20;;;;;;;38.83;22.87;;;;;;;6.70;58.64;99461.16;5007612;28;20627;-70
2023/02/06 06:41:46;;;;;;;34.07;23.07;;;;;;;6.66;58.06;99458.75;5011132;28;20185;-69
2023/02/06 06:44:11;;;;;;;34.30;24.50;;;;;;;6.61;58.45;99457.22;5009324;28;20255;-71
2023/02/06 06:46:36;;;;;;;35.37;23.40;;;;;;;6.63;58.63;99453.69;5001624;28;20177;-70
2023/02/06 06:49:02;;;;;;;31.87;23.47;;;;;;;6.63;59.08;99454.53;5006093;28;20244;-70
2023/02/06 06:51:30;;;;;;;32.80;22.47;;;;;;;6.65;58.77;99457.06;5008593;28;20609;-69
2023/02/06 06:53:56;;;;;;;31.33;21.87;;;;;;;6.64;58.48;99468.41;4991423;28;20184;-70
2023/02/06 06:56:22;;;;;;;30.60;22.33;;;;;;;6.49;57.71;99464.78;5008316;28;20537;-71
2023/02/06 06:58:49;;;;;;;32.50;22.93;;;;;;;6.47;57.43;99464.00;5007600;28;20267;-71
2023/02/06 07:01:14;;;;;;;31.87;22.63;;;;;;;6.42;57.91;99461.59;5009222;28;20423;-71
2023/02/06 07:03:43;;;;;;;32.13;21.13;;;;;;;6.32;57.91;99468.13;5008296;28;20431;-70
2023/02/06 07:06:09;;;;;;;33.67;22.57;;;;;;;6.33;58.19;99462.00;5017621;28;20188;-71
2023/02/06 07:08:40;;;;;;;26.93;20.03;;;;;;;6.27;57.89;99461.38;5012736;28;20462;-71
2023/02/06 07:11:07;;;;;;;30.13;20.03;;;;;;;6.23;57.58;99459.81;5011421;28;20869;-70
2023/02/06 07:13:32;;;;;;;29.77;18.90;;;;;;;6.23;57.95;99472.84;5011716;28;20427;-70
2023/02/06 07:15:57;;;;;;;29.67;20.87;;;;;;;6.25;58.10;99471.03;5012827;28;20997;-71
2023/02/06 07:18:23;;;;;;;29.03;19.90;;;;;;;6.28;58.08;99470.88;5012172;28;20630;-71
2023/02/06 07:20:50;;;;;;;30.00;20.47;;;;;;;6.31;57.75;99477.72;5012955;28;20624;-71
2023/02/06 07:23:15;;;;;;;28.87;18.17;;;;;;;6.30;57.44;99468.19;5012775;28;20246;-70
2023/02/06 07:25:41;;;;;;;27.70;18.63;;;;;;;6.22;57.14;99467.72;5014797;28;20428;-71
2023/02/06 07:28:07;;;;;;;28.63;18.93;;;;;;;6.24;57.00;99469.31;5012101;28;20204;-70
2023/02/06 07:30:33;;;;;;;29.53;18.50;;;;;;;6.18;56.82;99469.59;4970824;28;20620;-70
2023/02/06 07:32:58;;;;;;;28.40;18.43;;;;;;;6.17;56.86;99475.75;5017100;28;20520;-70
2023/02/06 07:35:24;;;;;;;27.80;18.60;;;;;;;6.13;57.10;99475.00;5011496;28;20283;-69
2023/02/06 07:37:52;;;;;;;32.87;19.43;;;;;;;6.10;56.96;99479.50;5011298;28;20657;-70
2023/02/06 07:40:18;;;;;;;25.47;16.57;;;;;;;6.14;57.07;99473.25;5017719;28;20211;-70
2023/02/06 07:42:43;;;;;;;27.00;17.80;;;;;;;6.14;57.16;99468.88;5013127;28;20876;-71
2023/02/06 07:45:09;;;;;;;37.80;25.17;;;;;;;6.08;57.96;99479.59;5011758;28;20180;-69
2023/02/06 07:47:35;;;;;;;33.70;22.23;;;;;;;6.11;57.66;99478.59;5004159;28;20187;-70
2023/02/06 07:50:00;;;;;;;28.80;20.13;;;;;;;6.15;58.25;99485.38;5011612;28;20192;-70
2023/02/06 07:52:25;;;;;;;27.93;20.30;;;;;;;6.22;57.90;99481.56;5011230;28;20189;-69
2023/02/06 07:54:51;;;;;;;33.20;18.20;;;;;;;6.30;57.42;99476.84;5011796;28;20775;-70
2023/02/06 07:57:16;;;;;;;27.03;18.67;;;;;;;6.39;57.28;99475.59;5011171;28;20618;-69
2023/02/06 07:59:42;;;;;;;26.10;18.27;;;;;;;6.35;56.62;99481.00;5012001;28;20303;-70
2023/02/06 08:02:11;;;;;;;27.63;17.20;;;;;;;6.41;56.04;99483.34;5013491;28;20295;-69
2023/02/06 08:04:36;;;;;;;21.20;15.67;;;;;;;6.37;56.33;99477.41;5011721;28;20264;-70
2023/02/06 08:07:03;;;;;;;23.00;16.07;;;;;;;6.26;55.58;99472.72;5011192;28;20436;-70
2023/02/06 08:09:28;;;;;;;22.17;16.97;;;;;;;6.28;55.93;99470.03;5011348;28;20236;-69
2023/02/06 08:11:54;;;;;;;21.60;17.00;;;;;;;6.27;55.71;99461.38;5011712;28;20450;-70
2023/02/06 08:14:19;;;;;;;24.87;17.47;;;;;;;6.23;55.89;99466.81;5011569;28;20279;-69
2023/02/06 08:16:45;;;;;;;33.93;17.47;;;;;;;6.25;56.44;99465.81;5010992;28;20215;-70
2023/02/06 08:19:11;;;;;;;44.60;17.53;;;;;;;6.36;56.92;99469.69;5011342;28;20624;-71
2023/02/06 08:21:36;;;;;;;22.70;15.50;;;;;;;6.41;56.33;99459.91;5010927;28;20194;-71
2023/02/06 08:24:03;;;;;;;22.27;16.40;;;;;;;6.44;56.36;99468.41;5018798;28;20423;-70
2023/02/06 08:26:29;;;;;;;23.40;16.30;;;;;;;6.45;55.70;99466.66;5010824;28;20176;-70
2023/02/06 08:28:55;;;;;;;22.77;16.47;;;;;;;6.39;55.51;99457.34;4998831;28;20541;-70
2023/02/06 08:31:23;;;;;;;23.67;16.10;;;;;;;6.37;55.81;99458.34;5011364;28;20463;-70
2023/02/06 08:33:49;;;;;;;22.57;16.17;;;;;;;6.41;55.36;99454.69;5016217;28;20522;-70
2023/02/06 08:36:16;;;;;;;22.10;15.03;;;;;;;6.40;55.49;99453.00;5007997;28;20479;-70
2023/02/06 08:38:42;;;;;;;24.93;16.13;;;;;;;6.39;55.48;99456.53;5014046;28;20477;-71
2023/02/06 08:41:20;;;;;;;23.37;15.63;;;;;;;6.41;55.84;99457.31;5015305;28;20427;-70
2023/02/06 08:43:47;;;;;;;23.17;15.70;;;;;;;6.45;54.99;99469.25;5004818;28;20755;-69
2023/02/06 08:46:13;;;;;;;26.00;15.00;;;;;;;6.38;54.85;99465.25;5004935;28;20456;-70
2023/02/06 08:48:38;;;;;;;25.10;16.83;;;;;;;6.35;54.59;99468.00;5011932;28;20447;-68
2023/02/06 08:51:05;;;;;;;23.10;15.83;;;;;;;6.33;54.89;99462.88;5011400;28;20462;-71
2023/02/06 08:53:32;;;;;;;22.60;14.93;;;;;;;6.26;54.71;99464.03;4993442;28;20184;-70
2023/02/06 08:55:59;;;;;;;23.73;15.00;;;;;;;6.28;55.06;99470.03;5010551;28;20463;-70
2023/02/06 08:58:24;;;;;;;21.00;14.63;;;;;;;6.30;54.90;99469.03;5005955;28;20496;-71
2023/02/06 09:00:51;;;;;;;21.10;14.80;;;;;;;6.32;55.38;99461.16;5010251;28;20517;-71
2023/02/06 09:03:16;;;;;;;20.47;15.33;;;;;;;6.30;55.49;99469.03;5011063;28;20735;-70
2023/02/06 09:05:42;;;;;;;23.30;15.87;;;;;;;6.30;55.29;99468.19;5010764;28;20430;-71
2023/02/06 09:08:07;;;;;;;22.33;15.40;;;;;;;6.36;55.42;99469.69;5004726;28;20209;-69
2023/02/06 09:10:33;;;;;;;23.50;16.17;;;;;;;6.42;55.22;99472.84;5010982;28;20239;-71
2023/02/06 09:12:58;;;;;;;20.47;14.73;;;;;;;6.51;55.40;99470.72;5010604;28;20523;-71
2023/02/06 09:15:24;;;;;;;26.30;16.17;;;;;;;6.49;55.29;99470.81;5010161;28;20275;-70
2023/02/06 09:17:49;;;;;;;28.80;15.03;;;;;;;6.47;54.68;99470.03;5009085;28;20294;-70
2023/02/06 09:20:15;;;;;;;23.03;13.73;;;;;;;6.46;54.41;99465.72;5009764;28;20646;-71
2023/02/06 09:22:43;;;;;;;18.80;13.20;;;;;;;6.40;53.49;99466.88;5007409;28;20220;-71
2023/02/06 09:25:09;;;;;;;21.03;12.80;;;;;;;6.36;53.95;99464.47;5003824;28;20197;-71
2023/02/06 09:27:35;;;;;;;19.40;12.33;;;;;;;6.35;54.21;99465.38;5003627;28;20449;-71
2023/02/06 09:30:00;;;;;;;19.50;12.70;;;;;;;6.28;54.68;99467.44;5008951;28;21091;-71
2023/02/06 09:32:26;;;;;;;18.23;12.27;;;;;;;6.29;54.38;99466.50;5011630;28;20518;-69
2023/02/06 09:34:51;;;;;;;19.40;11.90;;;;;;;6.36;53.85;99469.69;5008869;28;20193;-71
2023/02/06 09:37:17;;;;;;;16.00;11.47;;;;;;;6.30;54.04;99458.63;4985556;28;20205;-71
2023/02/06 09:39:43;;;;;;;18.47;12.63;;;;;;;6.32;54.43;99458.56;5011218;28;20218;-70
2023/02/06 09:42:31;;;;;;;18.67;11.23;;;;;;;6.32;54.71;99447.28;5001305;28;20248;-70
2023/02/06 09:45:17;;;;;;;12.93;9.97;;;;;;;6.32;53.72;99445.53;5005072;28;20176;-72
2023/02/06 09:47:53;;;;;;;12.30;9.27;;;;;;;6.29;53.16;99438.72;4985295;28;20854;-69
2023/02/06 09:50:26;;;;;;;17.43;10.63;;;;;;;6.37;53.58;99434.91;5009274;28;20477;-70
2023/02/06 09:53:15;;;;;;;16.23;10.93;;;;;;;6.28;53.28;99434.44;5004217;28;20423;-70
2023/02/06 09:55:43;;;;;;;18.00;10.87;;;;;;;6.35;53.24;99419.34;5005868;28;20459;-70
2023/02/06 09:58:38;;;;;;;15.33;10.03;;;;;;;6.40;53.20;99421.75;5008624;28;20463;-70
2023/02/06 10:01:14;;;;;;;12.33;9.03;;;;;;;6.47;53.42;99414.50;5009253;28;20482;-71
2023/02/06 10:03:57;;;;;;;16.23;9.73;;;;;;;6.48;53.01;99411.81;4980991;28;20443;-69
2023/02/06 10:06:29;;;;;;;13.83;9.70;;;;;;;6.47;52.95;99409.28;4988266;28;20419;-72
2023/02/06 10:09:03;;;;;;;15.13;9.70;;;;;;;6.48;53.19;99403.97;4989411;28;20562;-71
2023/02/06 10:11:38;;;;;;;14.30;8.40;;;;;;;6.51;52.70;99406.44;4989270;28;20568;-70
2023/02/06 10:14:09;;;;;;;12.80;9.43;;;;;;;6.53;52.61;99401.16;5007529;28;20859;-71
2023/02/06 10:17:02;;;;;;;11.00;7.77;;;;;;;6.53;52.31;99396.81;4990885;28;20459;-68
2023/02/06 10:19:39;;;;;;;11.57;7.77;;;;;;;6.55;51.96;99404.53;4983343;28;20475;-70
2023/02/06 10:22:25;;;;;;;13.10;9.13;;;;;;;6.52;51.73;99410.75;4990259;28;20491;-69
2023/02/06 10:25:25;;;;;;;14.40;10.07;;;;;;;6.53;52.11;99394.19;5005146;28;20543;-71
2023/02/06 10:27:55;;;;;;;15.00;9.33;;;;;;;6.55;52.24;99400.16;5004780;28;20464;-70
2023/02/06 10:30:31;;;;;;;11.60;8.53;;;;;;;6.53;52.12;99391.59;4989928;28;20427;-71
2023/02/06 10:33:04;;;;;;;9.63;6.37;;;;;;;6.55;52.26;99383.69;5006798;28;20496;-72
2023/02/06 10:35:49;;;;;;;7.57;6.60;;;;;;;6.60;51.84;99387.75;4999687;28;20856;-68
2023/02/06 10:38:40;;;;;;;9.93;7.37;;;;;;;6.60;51.48;99381.72;4984485;28;20483;-68
2023/02/06 10:41:27;;;;;;;8.10;5.33;;;;;;;6.59;50.48;99380.88;4991705;28;20434;-69
2023/02/06 10:44:28;;;;;;;6.37;5.00;;;;;;;6.47;51.40;99378.00;4992800;28;20856;-70
2023/02/06 10:46:54;;;;;;;9.70;6.40;;;;;;;6.51;51.30;99377.78;4985969;28;21050;-71
2023/02/06 10:49:22;;;;;;;19.20;6.80;;;;;;;6.49;51.01;99382.22;5009529;28;20455;-72
2023/02/06 10:51:52;;;;;;;9.60;5.80;;;;;;;6.41;50.83;99382.59;5008531;28;20431;-72
2023/02/06 10:54:19;;;;;;;8.17;5.13;;;;;;;6.47;51.23;99383.22;4999248;28;20424;-70
2023/02/06 10:56:46;;;;;;;6.63;5.47;;;;;;;6.47;50.48;99381.44;4990605;28;20462;-71
2023/02/06 10:59:27;;;;;;;6.23;5.03;;;;;;;6.48;50.92;99383.13;4993625;28;20487;-69
2023/02/06 11:02:02;;;;;;;9.77;5.33;;;;;;;6.47;50.46;99376.25;5012243;28;20454;-71
2023/02/06 11:04:48;;;;;;;8.70;4.90;;;;;;;6.46;50.59;99371.94;4988452;28;20442;-69
2023/02/06 11:07:19;;;;;;;10.23;5.27;;;;;;;6.51;50.59;99369.97;4990864;28;20419;-70
2023/02/06 11:09:45;;;;;;;6.77;5.20;;;;;;;6.52;50.42;99376.00;5011144;28;20809;-69
2023/02/06 11:12:27;;;;;;;8.13;5.47;;;;;;;6.47;50.74;99365.00;5007936;28;20427;-71
2023/02/06 11:14:53;;;;;;;8.60;5.33;;;;;;;6.47;50.51;99376.25;5008688;28;20192;-69
2023/02/06 11:17:21;;;;;;;8.73;4.97;;;;;;;6.45;50.24;99363.28;4992691;28;20465;-69
2023/02/06 11:19:48;;;;;;;6.57;4.47;;;;;;;6.41;49.70;99371.34;4987921;28;21029;-71
2023/02/06 11:22:16;;;;;;;5.40;4.57;;;;;;;6.40;49.92;99369.66;4994097;28;20978;-69
2023/02/06 11:25:08;;;;;;;12.67;4.80;;;;;;;6.40;49.62;99356.63;4994285;28;20423;-70
2023/02/06 11:27:34;;;;;;;7.20;4.97;;;;;;;6.36;49.44;99348.13;5006282;28;20818;-72
2023/02/06 11:30:07;;;;;;;9.90;5.40;;;;;;;6.43;50.52;99346.03;4994168;28;20483;-70
2023/02/06 11:32:42;;;;;;;6.50;5.27;;;;;;;6.54;49.83;99346.38;5005202;28;20797;-70
2023/02/06 11:35:58;;;;;;;9.03;5.20;;;;;;;6.47;49.68;99338.94;4989147;28;20431;-71
2023/02/06 11:38:27;;;;;;;5.93;4.70;;;;;;;6.51;48.96;99337.84;4969388;28;20455;-69